Time;durP1;ratioP1;P1;durP2;ratioP2;P2;SDS_P1;SDS_P2;PMS_P1;PMS_P2;Temp;Humidity;BMP_temperature;BMP_pressure;BME280_temperature;BME280_humidity;BME280_pressure;Samples;Min_cycle;Max_cycle;Signal;HPM_P1;HPM_P2
2022/10/18 00:01:40;;;;;;;21.30;14.27;;;12.30;99.90;;;;;;5081607;28;20227;-78
2022/10/18 00:04:06;;;;;;;18.35;15.10;;;12.30;99.90;;;;;;5083068;28;20635;-77
2022/10/18 00:06:31;;;;;;;19.27;16.20;;;12.30;99.90;;;;;;5086678;28;20211;-77
2022/10/18 00:08:57;;;;;;;23.38;16.27;;;12.20;99.90;;;;;;5087700;28;20189;-77
2022/10/18 00:11:23;;;;;;;15.05;13.35;;;12.20;99.90;;;;;;5084443;28;20193;-77
2022/10/18 00:13:49;;;;;;;18.27;15.00;;;12.20;99.90;;;;;;5077449;28;20190;-78
2022/10/18 00:16:16;;;;;;;16.67;14.93;;;12.10;99.90;;;;;;5077921;28;20187;-78
2022/10/18 00:18:42;;;;;;;18.30;14.85;;;12.10;99.90;;;;;;5087477;28;20664;-77
2022/10/18 00:21:13;;;;;;;16.88;15.07;;;12.20;99.90;;;;;;5094159;28;20190;-77
2022/10/18 00:23:39;;;;;;;16.08;14.00;;;12.20;99.90;;;;;;5089893;28;20213;-77
2022/10/18 00:26:06;;;;;;;16.65;14.38;;;12.30;99.90;;;;;;5090753;28;20234;-78
2022/10/18 00:28:35;;;;;;;19.67;15.07;;;12.30;99.90;;;;;;5090613;28;20179;-80
2022/10/18 00:31:18;;;;;;;21.20;15.05;;;12.30;99.90;;;;;;5092427;28;20229;-76
2022/10/18 00:33:49;;;;;;;17.73;14.77;;;12.20;99.90;;;;;;5083123;28;20175;-78
2022/10/18 00:36:15;;;;;;;17.92;15.13;;;12.20;99.90;;;;;;5084577;28;20205;-76
2022/10/18 00:38:41;;;;;;;22.98;16.33;;;12.10;99.90;;;;;;5082884;28;20188;-77
2022/10/18 00:41:09;;;;;;;20.65;15.25;;;12.10;99.90;;;;;;5084407;28;20188;-77
2022/10/18 00:43:54;;;;;;;18.40;15.57;;;12.10;99.90;;;;;;5082059;28;20189;-78
2022/10/18 00:46:20;;;;;;;17.95;14.65;;;12.10;99.90;;;;;;5094508;28;20205;-77
2022/10/18 00:48:47;;;;;;;25.77;15.50;;;12.10;99.90;;;;;;5088466;28;20179;-77
2022/10/18 00:51:12;;;;;;;21.85;14.98;;;12.10;99.90;;;;;;5088247;28;20178;-77
2022/10/18 00:53:39;;;;;;;21.17;16.17;;;12.10;99.90;;;;;;5084635;28;20209;-77
2022/10/18 00:56:05;;;;;;;21.45;17.83;;;12.10;99.90;;;;;;5090222;28;20167;-76
2022/10/18 00:58:31;;;;;;;20.65;16.55;;;12.10;99.90;;;;;;5086135;28;20194;-76
2022/10/18 01:00:57;;;;;;;20.95;15.75;;;12.00;99.90;;;;;;5085096;28;20257;-76
2022/10/18 01:03:22;;;;;;;24.50;17.30;;;12.10;99.90;;;;;;5088946;28;20600;-76
2022/10/18 01:05:48;;;;;;;20.73;16.38;;;12.00;99.90;;;;;;5091610;28;20206;-77
2022/10/18 01:08:44;;;;;;;22.50;15.50;;;12.10;99.90;;;;;;5091768;28;20186;-77
2022/10/18 01:11:32;;;;;;;15.80;13.63;;;12.10;99.90;;;;;;5101242;28;20175;-76
2022/10/18 01:14:17;;;;;;;14.35;12.93;;;12.20;99.90;;;;;;5087601;28;20662;-78
2022/10/18 01:17:04;;;;;;;16.02;12.45;;;12.30;99.90;;;;;;5090975;28;20182;-76
2022/10/18 01:19:58;;;;;;;13.55;12.15;;;12.30;99.90;;;;;;5087217;28;20178;-77
2022/10/18 01:22:38;;;;;;;13.77;12.27;;;12.30;99.90;;;;;;5090055;28;20190;-77
2022/10/18 01:25:24;;;;;;;17.40;13.40;;;12.30;99.90;;;;;;5082666;28;20230;-77
2022/10/18 01:28:01;;;;;;;18.67;14.38;;;12.20;99.90;;;;;;5067281;28;20594;-76
2022/10/18 01:31:05;;;;;;;19.25;14.88;;;12.10;99.90;;;;;;5090001;28;20171;-77
2022/10/18 01:33:42;;;;;;;15.90;14.18;;;12.00;99.90;;;;;;5078215;28;20184;-77
2022/10/18 01:36:22;;;;;;;14.60;12.93;;;12.00;99.90;;;;;;5086200;28;20644;-76
2022/10/18 01:38:51;;;;;;;15.00;12.75;;;11.90;99.90;;;;;;5086296;28;20257;-76
2022/10/18 01:41:21;;;;;;;17.08;13.02;;;11.90;99.90;;;;;;5091618;28;20551;-77
2022/10/18 01:43:49;;;;;;;17.90;12.40;;;11.90;99.90;;;;;;5087154;28;20206;-76
2022/10/18 01:46:20;;;;;;;12.98;11.52;;;11.90;99.90;;;;;;5090996;28;20255;-76
2022/10/18 01:48:46;;;;;;;14.38;12.88;;;11.80;99.90;;;;;;5087142;28;20206;-76
2022/10/18 01:51:12;;;;;;;12.75;11.15;;;11.80;99.90;;;;;;5088955;28;20186;-76
2022/10/18 01:53:37;;;;;;;12.60;11.18;;;11.80;99.90;;;;;;5091142;28;20213;-80
2022/10/18 01:56:18;;;;;;;14.80;10.80;;;11.70;99.90;;;;;;5086428;28;20191;-78
2022/10/18 01:59:20;;;;;;;12.88;11.45;;;11.70;99.90;;;;;;5084416;28;20189;-77
2022/10/18 02:01:45;;;;;;;13.13;11.82;;;11.70;99.90;;;;;;5087360;28;20191;-77
2022/10/18 02:04:44;;;;;;;14.55;11.48;;;11.60;99.90;;;;;;5084545;28;20198;-77
2022/10/18 02:07:35;;;;;;;12.88;11.38;;;11.70;99.90;;;;;;5083209;28;20207;-76
2022/10/18 02:10:09;;;;;;;13.07;11.57;;;11.70;99.90;;;;;;5090122;28;20211;-76
2022/10/18 02:12:39;;;;;;;12.07;10.88;;;11.60;99.90;;;;;;5090197;28;20197;-76
2022/10/18 02:15:06;;;;;;;17.35;12.20;;;11.60;99.90;;;;;;5090622;28;20201;-77
2022/10/18 02:17:32;;;;;;;12.23;10.93;;;11.50;99.90;;;;;;5088931;28;20183;-78
2022/10/18 02:20:00;;;;;;;12.95;11.55;;;11.50;99.90;;;;;;5089744;28;20178;-77
2022/10/18 02:22:29;;;;;;;14.20;12.35;;;11.50;99.90;;;;;;5089363;28;20181;-76
2022/10/18 02:24:58;;;;;;;14.38;11.93;;;11.60;99.90;;;;;;5087786;28;20277;-76
2022/10/18 02:27:24;;;;;;;15.55;12.07;;;11.60;99.90;;;;;;5086976;28;20297;-77
2022/10/18 02:29:50;;;;;;;13.80;11.82;;;11.50;99.90;;;;;;5088488;28;20278;-77
2022/10/18 02:32:26;;;;;;;13.48;11.80;;;11.40;99.90;;;;;;5089166;28;20678;-77
2022/10/18 02:35:15;;;;;;;16.13;11.30;;;11.40;99.90;;;;;;5092607;28;20194;-77
2022/10/18 02:37:42;;;;;;;14.95;11.50;;;11.40;99.90;;;;;;5086259;28;20178;-77
2022/10/18 02:40:09;;;;;;;12.48;11.18;;;11.40;99.90;;;;;;5088204;28;20213;-76
2022/10/18 02:42:45;;;;;;;12.90;10.90;;;11.40;99.90;;;;;;5083520;28;20186;-78
2022/10/18 02:45:12;;;;;;;13.70;12.30;;;11.30;99.90;;;;;;5087222;28;20695;-76
2022/10/18 02:47:38;;;;;;;14.18;12.27;;;11.30;99.90;;;;;;5087497;28;20545;-78
2022/10/18 02:50:04;;;;;;;15.13;12.50;;;11.40;99.90;;;;;;5085444;28;20185;-76
2022/10/18 02:52:30;;;;;;;13.23;10.95;;;11.40;99.90;;;;;;5085199;28;20182;-76
2022/10/18 02:54:56;;;;;;;12.88;11.32;;;11.40;99.90;;;;;;5085553;28;20224;-76
2022/10/18 02:57:21;;;;;;;15.63;12.40;;;11.40;99.90;;;;;;5088164;28;20183;-76
2022/10/18 02:59:47;;;;;;;13.98;11.60;;;11.50;99.90;;;;;;5086888;28;20262;-77
2022/10/18 03:02:13;;;;;;;15.18;11.75;;;11.50;99.90;;;;;;5088853;28;20261;-76
2022/10/18 03:04:38;;;;;;;16.55;12.55;;;11.60;99.90;;;;;;5076786;28;20628;-78
2022/10/18 03:07:04;;;;;;;14.93;12.57;;;11.60;99.90;;;;;;5079252;28;20235;-76
2022/10/18 03:09:29;;;;;;;13.32;11.93;;;11.70;99.90;;;;;;5088293;28;20178;-77
2022/10/18 03:11:56;;;;;;;16.70;12.60;;;11.60;99.90;;;;;;5090986;28;20540;-77
2022/10/18 03:14:22;;;;;;;11.55;9.85;;;11.70;99.90;;;;;;5083623;28;20656;-76
2022/10/18 03:16:48;;;;;;;10.95;9.48;;;11.70;99.90;;;;;;5082414;28;20185;-76
2022/10/18 03:19:14;;;;;;;11.43;10.23;;;11.80;99.90;;;;;;5086148;28;20234;-76
2022/10/18 03:21:39;;;;;;;12.23;10.20;;;11.80;99.90;;;;;;5078611;28;20187;-77
2022/10/18 03:24:05;;;;;;;12.27;9.57;;;11.80;99.90;;;;;;5088819;28;20234;-78
2022/10/18 03:26:31;;;;;;;10.02;8.98;;;11.90;99.90;;;;;;5091738;28;20202;-78
2022/10/18 03:28:56;;;;;;;13.52;9.27;;;11.90;99.90;;;;;;5085904;28;20637;-78
2022/10/18 03:31:22;;;;;;;11.52;9.48;;;11.90;99.90;;;;;;5089695;28;20185;-78
2022/10/18 03:33:48;;;;;;;10.65;8.35;;;11.90;99.90;;;;;;5087222;28;20191;-78
2022/10/18 03:36:14;;;;;;;14.90;9.02;;;12.00;99.90;;;;;;5084710;28;20197;-79
2022/10/18 03:38:40;;;;;;;10.50;8.35;;;12.00;99.90;;;;;;5085937;28;20204;-79
2022/10/18 03:41:05;;;;;;;10.25;9.15;;;12.00;99.90;;;;;;5082034;28;20265;-79
2022/10/18 03:43:31;;;;;;;11.23;9.60;;;12.00;99.90;;;;;;5082386;28;20649;-78
2022/10/18 03:45:57;;;;;;;14.75;8.98;;;12.00;99.90;;;;;;5079957;28;20271;-79
2022/10/18 03:48:23;;;;;;;15.63;10.05;;;12.00;99.90;;;;;;5092058;28;20192;-78
2022/10/18 03:50:48;;;;;;;15.57;10.43;;;11.90;99.90;;;;;;5087135;28;20208;-78
2022/10/18 03:53:14;;;;;;;17.98;10.85;;;12.00;99.90;;;;;;5092328;28;20312;-78
2022/10/18 03:55:40;;;;;;;18.05;11.00;;;12.00;99.90;;;;;;5082517;28;20645;-76
2022/10/18 03:58:06;;;;;;;22.88;11.38;;;12.00;99.90;;;;;;5089880;28;20179;-76
2022/10/18 04:00:32;;;;;;;22.30;11.73;;;12.00;99.90;;;;;;5080731;28;20265;-79
2022/10/18 04:02:57;;;;;;;22.30;11.52;;;12.00;99.90;;;;;;5087031;28;20179;-79
2022/10/18 04:05:25;;;;;;;24.15;11.52;;;12.00;99.90;;;;;;5090999;28;20545;-78
2022/10/18 04:07:51;;;;;;;28.85;12.52;;;12.00;99.90;;;;;;5091569;28;20232;-77
2022/10/18 04:10:17;;;;;;;29.10;11.65;;;12.00;99.90;;;;;;5100821;28;20219;-78
2022/10/18 04:12:43;;;;;;;22.23;12.20;;;11.90;99.90;;;;;;5098180;28;20200;-77
2022/10/18 04:15:09;;;;;;;23.23;12.23;;;11.90;99.90;;;;;;5096225;28;20202;-78
2022/10/18 04:17:35;;;;;;;25.73;12.30;;;12.00;99.90;;;;;;5096242;28;20182;-77
2022/10/18 04:20:01;;;;;;;21.67;12.05;;;12.00;99.90;;;;;;5086847;28;20211;-78
2022/10/18 04:22:26;;;;;;;26.80;12.48;;;12.00;99.90;;;;;;5091257;28;20213;-78
2022/10/18 04:24:52;;;;;;;18.38;11.82;;;11.90;99.90;;;;;;5090150;28;20733;-78
2022/10/18 04:27:18;;;;;;;24.48;12.68;;;11.90;99.90;;;;;;5082862;28;20210;-78
2022/10/18 04:29:44;;;;;;;23.33;12.75;;;11.90;99.90;;;;;;5085248;28;20181;-78
2022/10/18 04:32:09;;;;;;;23.65;12.93;;;12.00;99.90;;;;;;5084633;28;20175;-78
2022/10/18 04:34:35;;;;;;;29.50;12.90;;;12.00;99.90;;;;;;5096141;28;20258;-77
2022/10/18 04:37:01;;;;;;;25.98;12.88;;;12.00;99.90;;;;;;5084133;28;20231;-77
2022/10/18 04:39:26;;;;;;;23.60;14.25;;;12.00;99.90;;;;;;5085864;28;20178;-77
2022/10/18 04:41:52;;;;;;;18.88;11.80;;;11.90;99.90;;;;;;5089483;28;20190;-77
2022/10/18 04:44:18;;;;;;;16.65;11.50;;;11.90;99.90;;;;;;5085078;28;20236;-77
2022/10/18 04:46:43;;;;;;;17.05;12.23;;;12.00;99.90;;;;;;5085390;28;20211;-77
2022/10/18 04:49:09;;;;;;;33.22;14.18;;;12.10;99.90;;;;;;5081001;28;20183;-77
2022/10/18 04:51:34;;;;;;;26.73;14.40;;;12.00;99.90;;;;;;5089189;28;20253;-78
2022/10/18 04:54:00;;;;;;;16.15;13.20;;;12.00;99.90;;;;;;5082468;28;20206;-77
2022/10/18 04:56:26;;;;;;;20.80;14.02;;;12.10;99.90;;;;;;5083055;28;20186;-76
2022/10/18 04:58:51;;;;;;;31.92;14.60;;;12.10;99.90;;;;;;5091753;28;20171;-78
2022/10/18 05:01:17;;;;;;;32.55;14.73;;;12.10;99.90;;;;;;5085065;28;20253;-78
2022/10/18 05:03:43;;;;;;;31.40;15.55;;;12.10;99.90;;;;;;5083384;28;20202;-78
2022/10/18 05:06:09;;;;;;;23.08;15.18;;;12.00;99.90;;;;;;5090573;28;20683;-78
2022/10/18 05:08:35;;;;;;;26.08;14.00;;;12.10;99.90;;;;;;5088837;28;20190;-77
2022/10/18 05:11:02;;;;;;;25.33;13.98;;;12.10;99.90;;;;;;5085184;28;20170;-79
2022/10/18 05:13:28;;;;;;;28.73;14.95;;;12.20;99.90;;;;;;5092042;28;20182;-75
2022/10/18 05:15:53;;;;;;;36.78;15.32;;;12.30;99.90;;;;;;5085955;28;20171;-78
2022/10/18 05:18:19;;;;;;;22.10;14.18;;;12.30;99.90;;;;;;5088740;28;20645;-77
2022/10/18 05:20:45;;;;;;;19.23;14.60;;;12.30;99.90;;;;;;5093497;28;20571;-78
2022/10/18 05:23:11;;;;;;;16.67;14.98;;;12.30;99.90;;;;;;5085433;28;20178;-78
2022/10/18 05:25:38;;;;;;;26.38;13.98;;;12.30;99.90;;;;;;5085091;28;20283;-78
2022/10/18 05:28:04;;;;;;;25.23;14.88;;;12.30;99.90;;;;;;5084159;28;20199;-78
2022/10/18 05:30:29;;;;;;;23.95;15.70;;;12.30;99.90;;;;;;5090796;28;20182;-78
2022/10/18 05:33:11;;;;;;;20.30;15.75;;;12.20;99.90;;;;;;5088338;28;20558;-75
2022/10/18 05:35:39;;;;;;;25.65;14.15;;;12.10;99.90;;;;;;5109792;28;20195;-77
2022/10/18 05:38:05;;;;;;;23.35;14.80;;;12.10;99.90;;;;;;5103383;28;20179;-78
2022/10/18 05:40:32;;;;;;;25.38;13.18;;;12.10;99.90;;;;;;5106186;28;20191;-77
2022/10/18 05:42:58;;;;;;;18.00;12.48;;;12.10;99.90;;;;;;5101085;28;20178;-78
2022/10/18 05:45:23;;;;;;;15.50;12.60;;;12.20;99.90;;;;;;5091244;28;20293;-77
2022/10/18 05:47:49;;;;;;;12.25;10.75;;;12.20;99.90;;;;;;5085355;28;20586;-79
2022/10/18 05:50:15;;;;;;;12.25;11.07;;;12.40;99.90;;;;;;5086746;28;20179;-78
2022/10/18 05:52:40;;;;;;;17.52;12.38;;;12.40;99.90;;;;;;5098461;28;20175;-78
2022/10/18 05:55:09;;;;;;;12.80;11.43;;;12.30;99.90;;;;;;5102455;28;20201;-78
2022/10/18 05:57:35;;;;;;;21.23;12.60;;;12.20;99.90;;;;;;5108017;28;20174;-74
2022/10/18 06:00:00;;;;;;;12.50;11.30;;;12.20;99.90;;;;;;5090691;28;20696;-74
2022/10/18 06:02:26;;;;;;;13.70;12.18;;;12.20;99.90;;;;;;5092499;28;20177;-78
2022/10/18 06:04:52;;;;;;;14.23;12.57;;;12.30;99.90;;;;;;5094560;28;20233;-77
2022/10/18 06:08:26;;;;;;;;;;;;;;;;;;;;;
2022/10/18 06:10:52;;;;;;;12.68;11.38;;;12.40;99.90;;;;;;5082908;28;20177;-77
2022/10/18 06:13:18;;;;;;;12.75;11.65;;;12.40;99.90;;;;;;5094216;28;20258;-77
2022/10/18 06:15:44;;;;;;;21.85;12.23;;;12.60;99.90;;;;;;5083537;28;20249;-78
2022/10/18 06:18:09;;;;;;;20.20;12.93;;;12.50;99.90;;;;;;5086811;28;20174;-78
2022/10/18 06:20:35;;;;;;;13.63;12.32;;;12.50;99.90;;;;;;5094601;28;20245;-79
2022/10/18 06:23:00;;;;;;;14.85;12.70;;;12.50;99.90;;;;;;5086784;28;20195;-78
2022/10/18 06:25:26;;;;;;;15.50;11.85;;;12.60;99.90;;;;;;5088332;28;20281;-78
2022/10/18 06:27:52;;;;;;;12.68;10.48;;;12.60;99.90;;;;;;5085048;28;20255;-78
2022/10/18 06:30:17;;;;;;;14.00;12.48;;;12.80;99.90;;;;;;5090859;28;20185;-78
2022/10/18 06:32:43;;;;;;;15.38;12.40;;;12.90;99.90;;;;;;5081977;28;20603;-78
2022/10/18 06:35:09;;;;;;;13.20;11.80;;;12.90;99.90;;;;;;5091682;28;20281;-77
2022/10/18 06:37:35;;;;;;;14.68;11.52;;;13.00;99.90;;;;;;5079314;28;20190;-78
2022/10/18 06:40:01;;;;;;;16.80;11.88;;;13.00;99.90;;;;;;5085461;28;20282;-77
2022/10/18 06:42:27;;;;;;;14.15;10.75;;;13.00;99.90;;;;;;5092680;28;20683;-76
2022/10/18 06:44:53;;;;;;;14.45;12.70;;;13.00;99.90;;;;;;5086647;28;20245;-76
2022/10/18 06:47:18;;;;;;;13.75;12.35;;;13.00;99.90;;;;;;5084200;28;20238;-77
2022/10/18 06:49:44;;;;;;;13.40;11.98;;;13.00;99.90;;;;;;5083882;28;20183;-76
2022/10/18 06:52:10;;;;;;;13.02;11.82;;;13.00;99.90;;;;;;5087833;28;20179;-77
2022/10/18 06:54:35;;;;;;;14.05;12.00;;;13.00;99.90;;;;;;5087607;28;20205;-78
2022/10/18 06:57:02;;;;;;;15.57;13.88;;;13.00;99.90;;;;;;5083467;28;20668;-80
2022/10/18 06:59:27;;;;;;;14.48;12.88;;;13.00;99.90;;;;;;5087956;28;20681;-79
2022/10/18 07:01:53;;;;;;;14.18;12.70;;;13.00;99.90;;;;;;5085843;28;20182;-78
2022/10/18 07:04:19;;;;;;;14.35;12.73;;;12.90;99.90;;;;;;5088783;28;20692;-78
2022/10/18 07:06:44;;;;;;;13.75;12.38;;;12.90;99.90;;;;;;5090362;28;20266;-78
2022/10/18 07:09:10;;;;;;;15.35;12.80;;;12.80;99.90;;;;;;5083938;28;20255;-76
2022/10/18 07:11:36;;;;;;;14.90;12.73;;;12.80;99.90;;;;;;5077290;28;20180;-78
2022/10/18 07:14:03;;;;;;;15.73;12.57;;;12.90;99.90;;;;;;5081495;28;20230;-78
2022/10/18 07:16:30;;;;;;;14.32;12.82;;;12.90;99.90;;;;;;5086065;28;20177;-79
2022/10/18 07:18:59;;;;;;;15.00;13.43;;;12.80;99.90;;;;;;5091593;28;20185;-77
2022/10/18 07:21:25;;;;;;;15.43;12.13;;;12.80;99.90;;;;;;5082878;28;20182;-78
2022/10/18 07:23:51;;;;;;;16.92;12.88;;;12.80;99.90;;;;;;5086322;28;20222;-77
2022/10/18 07:26:28;;;;;;;16.40;12.57;;;12.80;99.90;;;;;;5085793;28;20198;-77
2022/10/18 07:29:00;;;;;;;14.27;12.32;;;12.90;99.90;;;;;;5083315;28;20174;-78
2022/10/18 07:31:26;;;;;;;14.90;11.93;;;13.00;99.90;;;;;;5088123;28;20232;-76
2022/10/18 07:33:52;;;;;;;17.58;13.48;;;13.10;99.90;;;;;;5086077;28;20207;-78
2022/10/18 07:36:20;;;;;;;13.75;12.30;;;13.30;99.90;;;;;;5080534;28;20183;-77
2022/10/18 07:38:45;;;;;;;14.73;12.73;;;13.40;99.90;;;;;;5087763;28;20747;-77
2022/10/18 07:41:12;;;;;;;16.05;13.02;;;13.50;99.90;;;;;;5088068;28;20265;-76
2022/10/18 07:43:43;;;;;;;14.85;12.65;;;13.60;99.90;;;;;;5089946;28;20177;-76
2022/10/18 07:46:08;;;;;;;15.43;12.75;;;13.60;99.90;;;;;;5083634;28;20734;-75
2022/10/18 07:48:34;;;;;;;17.33;13.70;;;13.60;99.90;;;;;;5077309;28;20290;-75
2022/10/18 07:51:00;;;;;;;17.15;13.57;;;13.60;99.90;;;;;;5079842;28;20262;-76
2022/10/18 07:53:27;;;;;;;15.50;12.52;;;13.60;99.90;;;;;;5086522;28;20178;-76
2022/10/18 07:55:59;;;;;;;18.05;13.52;;;13.50;99.90;;;;;;5080480;28;20629;-75
2022/10/18 07:58:26;;;;;;;15.80;13.48;;;13.50;99.90;;;;;;5085558;28;20181;-77
2022/10/18 08:00:51;;;;;;;14.50;12.80;;;13.50;99.90;;;;;;5081404;28;20228;-76
2022/10/18 08:03:18;;;;;;;18.70;13.70;;;13.60;99.90;;;;;;5086428;28;20179;-77
2022/10/18 08:05:51;;;;;;;17.63;12.45;;;13.60;99.90;;;;;;5088906;28;20574;-79
2022/10/18 08:08:17;;;;;;;13.98;11.65;;;13.60;99.90;;;;;;5080236;28;20247;-78
2022/10/18 08:10:42;;;;;;;14.68;12.13;;;13.70;99.90;;;;;;5079929;28;20258;-79
2022/10/18 08:13:08;;;;;;;14.20;12.13;;;13.70;99.90;;;;;;5084648;28;20176;-78
2022/10/18 08:15:35;;;;;;;14.00;11.57;;;13.70;99.90;;;;;;5088227;28;20198;-78
2022/10/18 08:18:01;;;;;;;12.10;10.57;;;13.90;99.90;;;;;;5081240;28;20186;-78
2022/10/18 08:20:27;;;;;;;13.68;11.30;;;14.10;99.90;;;;;;5084712;28;20190;-78
2022/10/18 08:22:53;;;;;;;13.02;11.73;;;14.20;99.90;;;;;;5078781;28;20175;-76
2022/10/18 08:25:18;;;;;;;12.93;11.45;;;14.40;99.90;;;;;;5083436;28;20838;-76
2022/10/18 08:27:44;;;;;;;13.13;11.75;;;14.60;99.90;;;;;;5082241;28;20202;-77
2022/10/18 08:30:10;;;;;;;14.38;12.43;;;14.80;99.90;;;;;;5090866;28;20187;-76
2022/10/18 08:32:36;;;;;;;12.75;11.38;;;14.90;99.90;;;;;;5079060;28;20175;-77
2022/10/18 08:35:01;;;;;;;13.32;11.20;;;15.20;99.90;;;;;;5076432;28;20205;-77
2022/10/18 08:37:27;;;;;;;15.15;11.80;;;15.40;99.90;;;;;;5084264;28;20229;-77
2022/10/18 08:39:52;;;;;;;12.48;11.10;;;15.50;99.90;;;;;;5088245;28;20179;-77
2022/10/18 08:42:27;;;;;;;19.35;14.00;;;15.50;99.90;;;;;;5095462;28;20190;-77
2022/10/18 08:44:53;;;;;;;13.25;10.85;;;15.50;99.90;;;;;;5096585;28;20244;-77
2022/10/18 08:47:25;;;;;;;14.25;11.02;;;15.60;99.90;;;;;;5097431;28;20207;-77
2022/10/18 08:49:56;;;;;;;14.23;11.05;;;15.90;99.90;;;;;;5099397;28;20178;-76
2022/10/18 08:53:16;;;;;;;13.45;11.38;;;15.80;99.90;;;;;;5101634;28;20170;-78
2022/10/18 08:55:47;;;;;;;13.48;11.40;;;15.80;99.90;;;;;;5086023;28;20221;-78
2022/10/18 08:58:22;;;;;;;13.30;11.88;;;15.70;99.90;;;;;;5096389;28;20183;-78
2022/10/18 09:01:15;;;;;;;13.57;11.88;;;15.70;99.90;;;;;;5099580;28;20189;-77
2022/10/18 09:03:54;;;;;;;12.88;10.90;;;15.80;99.90;;;;;;5117774;27;20183;-77
2022/10/18 09:06:48;;;;;;;13.60;12.13;;;15.90;99.90;;;;;;5105506;28;20251;-77
2022/10/18 09:09:45;;;;;;;13.90;12.05;;;16.00;99.90;;;;;;5079895;28;20195;-76
2022/10/18 09:12:48;;;;;;;14.90;11.52;;;16.20;99.90;;;;;;5096175;28;20186;-78
2022/10/18 09:15:39;;;;;;;12.68;11.27;;;16.40;99.90;;;;;;5094844;28;20578;-79
2022/10/18 09:18:16;;;;;;;13.38;12.07;;;16.60;99.90;;;;;;5088076;28;20247;-77
2022/10/18 09:20:58;;;;;;;12.75;11.32;;;16.80;99.90;;;;;;5084290;28;20235;-78
2022/10/18 09:23:50;;;;;;;14.18;12.65;;;16.80;99.90;;;;;;5088383;28;20324;-79
2022/10/18 09:26:23;;;;;;;14.23;12.18;;;16.90;99.90;;;;;;5087352;28;20583;-78
2022/10/18 09:29:03;;;;;;;12.90;10.95;;;17.10;99.90;;;;;;5091315;28;20197;-78
2022/10/18 09:31:44;;;;;;;13.18;11.50;;;17.20;99.90;;;;;;5092081;28;20174;-77
2022/10/18 09:34:29;;;;;;;14.60;11.23;;;17.20;99.90;;;;;;5084070;28;20281;-78
2022/10/18 09:36:55;;;;;;;11.88;10.68;;;17.30;99.90;;;;;;5083585;28;20277;-77
2022/10/18 09:39:27;;;;;;;12.57;11.30;;;17.50;99.90;;;;;;5089949;28;20588;-78
2022/10/18 09:42:12;;;;;;;12.90;11.60;;;17.60;99.90;;;;;;5084212;28;20174;-79
2022/10/18 09:44:50;;;;;;;12.55;11.35;;;17.60;99.90;;;;;;5092485;28;20205;-78
2022/10/18 09:47:23;;;;;;;12.52;11.32;;;17.90;99.90;;;;;;5082951;28;20210;-77
2022/10/18 09:49:54;;;;;;;11.45;10.30;;;18.40;99.90;;;;;;5098068;28;20171;-78
2022/10/18 09:52:30;;;;;;;13.38;12.00;;;18.90;99.90;;;;;;5082213;28;20182;-76
2022/10/18 09:55:00;;;;;;;13.15;11.40;;;19.10;99.90;;;;;;5092718;28;20193;-77
2022/10/18 09:57:39;;;;;;;13.65;11.68;;;18.80;99.90;;;;;;5091615;28;20265;-77
2022/10/18 10:00:13;;;;;;;14.10;12.65;;;18.70;99.90;;;;;;5093368;28;20182;-78
2022/10/18 10:02:38;;;;;;;13.05;11.65;;;19.10;99.90;;;;;;5093303;28;20186;-77
2022/10/18 10:05:08;;;;;;;12.40;11.20;;;19.40;99.90;;;;;;5085016;28;20199;-77
2022/10/18 10:07:41;;;;;;;12.70;11.50;;;19.70;99.90;;;;;;5086831;28;20743;-78
2022/10/18 10:10:28;;;;;;;12.10;10.90;;;20.00;99.90;;;;;;5092629;28;20196;-77
2022/10/18 10:13:21;;;;;;;13.00;11.73;;;20.00;99.90;;;;;;5086184;28;20292;-78
2022/10/18 10:15:59;;;;;;;12.35;11.25;;;20.00;99.90;;;;;;5089784;28;20194;-79
2022/10/18 10:18:33;;;;;;;12.90;11.70;;;20.10;99.90;;;;;;5092322;28;20182;-78
2022/10/18 10:21:04;;;;;;;13.55;12.25;;;20.20;99.90;;;;;;5094079;28;20174;-77
2022/10/18 10:23:53;;;;;;;14.13;12.65;;;20.50;99.90;;;;;;5087477;28;20178;-80
2022/10/18 10:26:24;;;;;;;13.90;12.60;;;20.50;99.90;;;;;;5086776;28;20268;-78
2022/10/18 10:28:50;;;;;;;15.57;13.07;;;20.70;99.90;;;;;;5093872;28;20186;-79
2022/10/18 10:31:30;;;;;;;14.35;12.95;;;21.10;99.90;;;;;;5086357;28;20194;-79
2022/10/18 10:34:00;;;;;;;14.60;13.10;;;21.50;99.90;;;;;;5086205;28;20686;-78
2022/10/18 10:36:26;;;;;;;13.45;12.20;;;21.70;99.90;;;;;;5082959;28;20533;-77
2022/10/18 10:39:22;;;;;;;13.35;11.73;;;22.10;99.90;;;;;;5088411;28;20261;-77
2022/10/18 10:41:54;;;;;;;15.10;13.65;;;22.50;99.90;;;;;;5076581;28;20198;-78
2022/10/18 10:44:26;;;;;;;13.90;12.13;;;22.40;99.90;;;;;;5088833;28;21621;-75
2022/10/18 10:46:53;;;;;;;14.05;12.60;;;23.00;99.90;;;;;;5083217;28;20205;-75
2022/10/18 10:49:42;;;;;;;12.65;11.45;;;23.30;99.90;;;;;;5092353;28;20178;-75
2022/10/18 10:52:26;;;;;;;13.90;12.43;;;23.30;99.90;;;;;;5082377;28;20548;-75
2022/10/18 10:54:52;;;;;;;13.20;11.98;;;23.20;99.90;;;;;;5084744;28;20572;-75
2022/10/18 10:57:28;;;;;;;14.65;13.25;;;23.00;99.90;;;;;;5086772;28;20539;-75
2022/10/18 10:59:58;;;;;;;14.77;13.18;;;23.70;99.90;;;;;;5088105;28;20187;-75
2022/10/18 11:02:32;;;;;;;12.77;11.57;;;25.50;99.90;;;;;;5084476;28;20190;-76
2022/10/18 11:05:28;;;;;;;13.43;12.00;;;27.30;99.90;;;;;;5088063;28;20214;-75
2022/10/18 11:08:00;;;;;;;13.75;12.45;;;29.50;97.40;;;;;;5082983;28;20684;-75
2022/10/18 11:10:33;;;;;;;12.23;11.02;;;30.90;91.40;;;;;;5080368;28;20198;-75
2022/10/18 11:13:17;;;;;;;12.43;11.43;;;31.40;85.90;;;;;;5078713;28;20174;-73
2022/10/18 11:15:51;;;;;;;13.40;12.25;;;31.40;81.60;;;;;;5083685;28;20200;-74
2022/10/18 11:18:37;;;;;;;14.18;12.90;;;31.20;80.70;;;;;;5081736;28;20182;-73
2022/10/18 11:21:15;;;;;;;14.07;12.60;;;31.30;80.30;;;;;;5084245;28;20173;-73
2022/10/18 11:23:42;;;;;;;13.85;12.50;;;32.20;76.70;;;;;;5081771;28;20182;-75
2022/10/18 11:26:10;;;;;;;14.30;13.00;;;33.40;72.00;;;;;;5090130;28;20190;-74
2022/10/18 11:29:20;;;;;;;13.82;12.63;;;33.90;68.70;;;;;;5080725;28;20234;-74
2022/10/18 11:32:04;;;;;;;14.77;13.30;;;34.30;66.90;;;;;;5080708;28;20206;-74
2022/10/18 11:34:32;;;;;;;13.82;12.63;;;35.00;64.50;;;;;;5086524;28;20202;-74
2022/10/18 11:37:20;;;;;;;14.02;12.68;;;35.90;61.70;;;;;;5079758;28;20182;-75
2022/10/18 11:40:23;;;;;;;14.32;12.93;;;36.10;59.80;;;;;;5083184;28;20628;-75
2022/10/18 11:42:57;;;;;;;13.90;12.60;;;36.50;58.10;;;;;;5088081;28;20185;-75
2022/10/18 11:45:44;;;;;;;14.75;13.35;;;36.90;57.20;;;;;;5084397;28;20211;-73
2022/10/18 11:48:25;;;;;;;14.50;13.07;;;37.20;57.00;;;;;;5080077;28;20197;-74
2022/10/18 11:51:05;;;;;;;13.65;12.35;;;37.20;56.20;;;;;;5081378;28;20174;-74
2022/10/18 11:54:05;;;;;;;13.50;12.23;;;37.20;55.90;;;;;;5080410;28;20186;-75
2022/10/18 11:56:44;;;;;;;13.93;12.60;;;37.40;55.50;;;;;;5086136;28;20649;-74
2022/10/18 11:59:24;;;;;;;13.20;12.00;;;37.90;54.70;;;;;;5084667;28;20186;-74
2022/10/18 12:02:37;;;;;;;13.18;11.98;;;38.30;53.80;;;;;;5079177;28;20265;-73
2022/10/18 12:05:05;;;;;;;13.77;12.57;;;38.10;54.30;;;;;;5083270;28;20817;-78
2022/10/18 12:07:36;;;;;;;10.95;9.95;;;37.90;53.30;;;;;;5084676;28;20261;-75
2022/10/18 12:10:08;;;;;;;12.68;11.48;;;38.10;53.60;;;;;;5088702;28;20178;-76
2022/10/18 12:12:47;;;;;;;12.95;11.63;;;38.40;52.80;;;;;;5083367;28;20189;-76
2022/10/18 12:15:24;;;;;;;12.00;10.98;;;37.90;53.20;;;;;;5086219;28;20701;-76
2022/10/18 12:17:54;;;;;;;13.15;11.95;;;37.50;53.90;;;;;;5080158;28;20253;-79
2022/10/18 12:20:30;;;;;;;12.13;10.93;;;37.60;53.70;;;;;;5089438;28;20181;-78
2022/10/18 12:23:02;;;;;;;12.13;11.05;;;37.20;53.70;;;;;;5082883;28;20269;-80
2022/10/18 12:25:32;;;;;;;12.85;11.73;;;35.60;55.90;;;;;;5088316;28;20759;-75
2022/10/18 12:28:03;;;;;;;13.20;12.10;;;34.00;58.70;;;;;;5083575;28;20205;-80
2022/10/18 12:30:38;;;;;;;12.70;11.45;;;32.00;63.20;;;;;;5085864;28;20539;-79
2022/10/18 12:33:14;;;;;;;12.80;11.70;;;31.10;66.40;;;;;;5083748;28;20181;-77
2022/10/18 12:36:10;;;;;;;12.57;11.55;;;30.20;68.30;;;;;;5086469;28;20548;-79
2022/10/18 12:38:40;;;;;;;12.63;11.40;;;29.80;70.60;;;;;;5085879;28;20253;-77
2022/10/18 12:41:06;;;;;;;12.98;11.80;;;29.40;72.10;;;;;;5087035;28;20197;-77
2022/10/18 12:43:35;;;;;;;13.02;11.75;;;29.10;73.10;;;;;;5091541;28;20190;-76
2022/10/18 12:46:06;;;;;;;11.18;10.23;;;28.90;76.00;;;;;;5094458;28;20548;-77
2022/10/18 12:48:37;;;;;;;11.23;10.32;;;28.90;76.20;;;;;;5089276;28;20189;-77
2022/10/18 12:51:17;;;;;;;11.55;10.60;;;28.90;76.40;;;;;;5087685;28;20550;-77